New Yoshino — JG5527 — position and weather

sailwx.info

Track history (hours):
 
Tides and Currents Weather Stations Pressure Air Temp Water Temp Dewpoint Dewpoint Depression Visibility Wind Speed Wind Dir Waves Ship Positions

New Yoshino

Last reported at 2017-Jun-24 17:05 UTC. Time now 2017-Jun-27 20:38 UTC.
Position N 35°10' E 139°45'.

Length 102 m; draft 6.6 m.

Type: Tanker. MMSI: 431300724.

Date/timePositionNaut miles runAvg speedWind from/ knotsBaromVisibWave heightAir tempDewpointWater temp
2017-Jun-24 17:05N 35°10' E 139°45'313.0
2017-Jun-24 16:49N 35°13' E 139°46'412.2
2017-Jun-24 16:30N 35°16' E 139°46'612.1
2017-Jun-24 16:01N 35°22' E 139°42'612.3
2017-Jun-24 15:31N 35°27' E 139°46'3 6.1
2017-Jun-24 15:01N 35°30' E 139°45'0 0.2
2017-Jun-24 14:00N 35°30' E 139°45'0 0.0
2017-Jun-24 13:30N 35°30' E 139°45'0 0.0
2017-Jun-24 13:00N 35°30' E 139°45'0 0.0
2017-Jun-24 12:30N 35°30' E 139°45'0 0.0
2017-Jun-24 12:00N 35°30' E 139°45'0 0.0
2017-Jun-24 11:30N 35°30' E 139°45'0 0.0
2017-Jun-24 11:00N 35°30' E 139°45'0 0.0
2017-Jun-24 10:30N 35°30' E 139°45'0 0.0
2017-Jun-24 10:00N 35°30' E 139°45'0 0.0
2017-Jun-24 09:30N 35°30' E 139°45'0 0.1
2017-Jun-24 09:00N 35°30' E 139°45'3 6.5
2017-Jun-24 08:30N 35°28' E 139°42'510.5
2017-Jun-24 08:00N 35°24' E 139°45'1 1.3
2017-Jun-24 07:28N 35°23' E 139°45'0 0.2
2017-Jun-24 07:00N 35°23' E 139°45'510.8
2017-Jun-24 06:30N 35°17' E 139°45'612.9
2017-Jun-24 06:00N 35°11' E 139°47'1114.3
2017-Jun-24 05:14N 35°00' E 139°44'2 0.0
2017-Jun-22 08:56N 34°58' E 139°43'1512.2
2017-Jun-22 07:43N 35°13' E 139°46'312.3
2017-Jun-22 07:31N 35°16' E 139°46'611.9
2017-Jun-22 07:00N 35°21' E 139°43'611.6
2017-Jun-22 06:30N 35°26' E 139°45'5 9.1
2017-Jun-22 06:01N 35°30' E 139°47'1 2.3
2017-Jun-22 05:30N 35°30' E 139°45'0 0.0
2017-Jun-22 05:00N 35°30' E 139°45'0 0.0
2017-Jun-22 04:29N 35°30' E 139°45'0 0.0
2017-Jun-22 04:00N 35°30' E 139°45'0 0.0
2017-Jun-22 03:29N 35°30' E 139°45'0 0.0
2017-Jun-22 02:59N 35°30' E 139°45'0 0.0
2017-Jun-22 02:30N 35°30' E 139°45'0 0.0
2017-Jun-22 02:00N 35°30' E 139°45'0 0.0
2017-Jun-22 01:29N 35°30' E 139°45'0 0.0
2017-Jun-22 01:00N 35°30' E 139°45'0 0.0
2017-Jun-22 00:30N 35°30' E 139°45'0 0.0
2017-Jun-21 23:59N 35°30' E 139°45'1 1.7
2017-Jun-21 23:30N 35°30' E 139°44'3 6.2
2017-Jun-21 23:00N 35°27' E 139°43'4 9.0
2017-Jun-21 22:30N 35°28' E 139°49'5 9.7
2017-Jun-21 22:00N 35°29' E 139°55'1 1.7
2017-Jun-21 21:30N 35°29' E 139°55'0 0.0
2017-Jun-21 21:00N 35°29' E 139°55'0 0.0
2017-Jun-21 20:29N 35°29' E 139°55'0 0.1
2017-Jun-21 20:01N 35°29' E 139°55'0 0.1
2017-Jun-21 19:30N 35°29' E 139°56'0 0.1
2017-Jun-21 19:00N 35°29' E 139°56'0 0.0
2017-Jun-21 18:30N 35°29' E 139°56'0 0.0
2017-Jun-21 18:00N 35°29' E 139°56'0 0.0
2017-Jun-21 17:30N 35°29' E 139°56'0 0.0
2017-Jun-21 17:00N 35°29' E 139°56'0 0.0
2017-Jun-21 16:30N 35°29' E 139°56'0 0.0
2017-Jun-21 15:58N 35°29' E 139°56'0 0.0
2017-Jun-21 15:30N 35°29' E 139°56'0 0.0
2017-Jun-21 15:00N 35°29' E 139°56'0 0.0
2017-Jun-21 14:28N 35°29' E 139°56'0 0.0
2017-Jun-21 13:29N 35°29' E 139°56'0 0.0
2017-Jun-21 13:00N 35°29' E 139°56'0 0.0
2017-Jun-21 12:30N 35°29' E 139°56'0 0.0
2017-Jun-21 11:58N 35°29' E 139°56'0 0.0
2017-Jun-21 11:30N 35°29' E 139°56'0 0.0
2017-Jun-21 10:59N 35°29' E 139°56'0 0.0
2017-Jun-21 10:30N 35°29' E 139°56'0 0.0
2017-Jun-21 10:00N 35°29' E 139°56'0 0.0
2017-Jun-21 09:30N 35°29' E 139°56'0 0.0
2017-Jun-21 08:58N 35°29' E 139°56'0 0.0
2017-Jun-21 07:31N 35°29' E 139°55'0 0.1
2017-Jun-21 06:59N 35°29' E 139°55'0 0.0
2017-Jun-21 06:27N 35°29' E 139°55'0 0.0
2017-Jun-21 05:59N 35°29' E 139°55'0 0.0
2017-Jun-21 05:22N 35°29' E 139°55'0 0.1
2017-Jun-21 04:06N 35°29' E 139°55'0 4.0
2017-Jun-21 04:00N 35°29' E 139°56'3 0.4
2017-Jun-20 21:31N 35°29' E 139°59'0 6.1
2017-Jun-20 21:30N 35°29' E 139°59'3 1.9
2017-Jun-20 20:06N 35°28' E 139°56'0 0.0
2017-Jun-20 19:55N 35°28' E 139°56'0 0.1
2017-Jun-20 19:30N 35°28' E 139°56'0 0.0
2017-Jun-20 19:00N 35°28' E 139°56'0 0.0
2017-Jun-20 18:30N 35°28' E 139°56'0 0.0
2017-Jun-20 18:00N 35°28' E 139°56'0 0.0
2017-Jun-20 17:31N 35°28' E 139°56'0 0.0
2017-Jun-20 17:00N 35°28' E 139°56'0 0.0
2017-Jun-20 16:30N 35°28' E 139°56'0 0.0
2017-Jun-20 16:00N 35°28' E 139°56'0 0.0
2017-Jun-20 15:30N 35°28' E 139°56'0 0.0
2017-Jun-20 15:00N 35°28' E 139°56'3 3.5
2017-Jun-20 14:01N 35°28' E 139°51'612.9
2017-Jun-20 13:31N 35°23' E 139°46'611.8
2017-Jun-20 13:00N 35°17' E 139°45'612.0
2017-Jun-20 12:31N 35°12' E 139°47'24510.9
2017-Jun-19 13:58N 34°02' E 135°02'611.9
2017-Jun-19 13:30N 34°07' E 135°04'3 0.4
2017-Jun-19 05:46N 34°07' E 135°07'1 1.4
2017-Jun-19 05:23N 34°08' E 135°07'0 0.0
2017-Jun-19 05:00N 34°08' E 135°07'0 0.0
2017-Jun-19 04:31N 34°08' E 135°07'0 0.0
2017-Jun-19 04:01N 34°08' E 135°07'0 0.0
2017-Jun-19 03:30N 34°08' E 135°07'0 0.0
2017-Jun-19 03:00N 34°08' E 135°07'2 3.1
2017-Jun-19 02:30N 34°08' E 135°05'612.2
2017-Jun-19 02:00N 34°02' E 135°02'244 6.8
2017-Jun-17 14:00N 35°18' E 139°44'611.7
2017-Jun-17 13:30N 35°24' E 139°43'612.1
2017-Jun-17 13:00N 35°29' E 139°48'2 4.3
2017-Jun-17 12:30N 35°30' E 139°45'0 0.0
2017-Jun-17 11:54N 35°30' E 139°45'0 0.0
2017-Jun-17 11:30N 35°30' E 139°45'0 0.0
2017-Jun-17 11:00N 35°30' E 139°45'0 0.0
2017-Jun-17 10:30N 35°30' E 139°45'0 0.0
2017-Jun-17 09:57N 35°30' E 139°45'0 0.0
2017-Jun-17 09:27N 35°30' E 139°45'0 0.0
2017-Jun-17 09:00N 35°30' E 139°45'1 2.2
2017-Jun-17 08:30N 35°30' E 139°44'3 6.4
2017-Jun-17 08:00N 35°27' E 139°44'4 8.2
2017-Jun-17 07:30N 35°23' E 139°45'511.0
2017-Jun-17 07:00N 35°17' E 139°45'611.7
2017-Jun-17 06:30N 35°12' E 139°47'4 0.1
2017-Jun-15 04:56N 35°08' E 139°45'613.0
2017-Jun-15 04:30N 35°13' E 139°46'611.8
2017-Jun-15 04:00N 35°19' E 139°44'611.8
2017-Jun-15 03:31N 35°25' E 139°43'612.3
2017-Jun-15 03:01N 35°29' E 139°48'2 4.2
2017-Jun-15 02:29N 35°30' E 139°45'0 0.0
2017-Jun-15 01:59N 35°30' E 139°45'0 0.0
2017-Jun-15 01:29N 35°30' E 139°45'0 0.0
2017-Jun-15 00:59N 35°30' E 139°45'0 0.0
2017-Jun-15 00:29N 35°30' E 139°45'0 0.0
2017-Jun-14 23:59N 35°30' E 139°45'0 0.0
2017-Jun-14 23:29N 35°30' E 139°45'0 0.0
2017-Jun-14 22:58N 35°30' E 139°45'0 0.1
2017-Jun-14 22:23N 35°30' E 139°45'2 4.2
2017-Jun-14 22:00N 35°30' E 139°43'4 7.2
2017-Jun-14 21:30N 35°26' E 139°44'2 4.1
2017-Jun-14 20:58N 35°24' E 139°45'0 0.1
2017-Jun-14 20:28N 35°24' E 139°45'0 0.0
2017-Jun-14 19:58N 35°24' E 139°45'0 0.0
2017-Jun-14 19:28N 35°24' E 139°45'0 0.1
2017-Jun-14 18:55N 35°24' E 139°45'0 0.0
2017-Jun-14 18:28N 35°24' E 139°45'0 0.0
2017-Jun-14 17:58N 35°24' E 139°45'0 0.0
2017-Jun-14 17:25N 35°24' E 139°45'  
Track history (hours):
 
Tides and Currents Weather Stations Pressure Air Temp Water Temp Dewpoint Dewpoint Depression Visibility Wind Speed Wind Dir Waves Ship Positions

New Yoshino

Last reported at 2017-Jun-24 17:05 UTC. Time now 2017-Jun-27 20:38 UTC.
Position N 35°10' E 139°45'.

Length 102 m; draft 6.6 m.

Type: Tanker. MMSI: 431300724.

Date/timePositionNaut miles runAvg speedWind from/ knotsBaromVisibWave heightAir tempDewpointWater temp
2017-Jun-24 17:05N 35°10' E 139°45'313.0
2017-Jun-24 16:49N 35°13' E 139°46'412.2
2017-Jun-24 16:30N 35°16' E 139°46'612.1
2017-Jun-24 16:01N 35°22' E 139°42'612.3
2017-Jun-24 15:31N 35°27' E 139°46'3 6.1
2017-Jun-24 15:01N 35°30' E 139°45'0 0.2
2017-Jun-24 14:00N 35°30' E 139°45'0 0.0
2017-Jun-24 13:30N 35°30' E 139°45'0 0.0
2017-Jun-24 13:00N 35°30' E 139°45'0 0.0
2017-Jun-24 12:30N 35°30' E 139°45'0 0.0
2017-Jun-24 12:00N 35°30' E 139°45'0 0.0
2017-Jun-24 11:30N 35°30' E 139°45'0 0.0
2017-Jun-24 11:00N 35°30' E 139°45'0 0.0
2017-Jun-24 10:30N 35°30' E 139°45'0 0.0
2017-Jun-24 10:00N 35°30' E 139°45'0 0.0
2017-Jun-24 09:30N 35°30' E 139°45'0 0.1
2017-Jun-24 09:00N 35°30' E 139°45'3 6.5
2017-Jun-24 08:30N 35°28' E 139°42'510.5
2017-Jun-24 08:00N 35°24' E 139°45'1 1.3
2017-Jun-24 07:28N 35°23' E 139°45'0 0.2
2017-Jun-24 07:00N 35°23' E 139°45'510.8
2017-Jun-24 06:30N 35°17' E 139°45'612.9
2017-Jun-24 06:00N 35°11' E 139°47'1114.3
2017-Jun-24 05:14N 35°00' E 139°44'2 0.0
2017-Jun-22 08:56N 34°58' E 139°43'1512.2
2017-Jun-22 07:43N 35°13' E 139°46'312.3
2017-Jun-22 07:31N 35°16' E 139°46'611.9
2017-Jun-22 07:00N 35°21' E 139°43'611.6
2017-Jun-22 06:30N 35°26' E 139°45'5 9.1
2017-Jun-22 06:01N 35°30' E 139°47'1 2.3
2017-Jun-22 05:30N 35°30' E 139°45'0 0.0
2017-Jun-22 05:00N 35°30' E 139°45'0 0.0
2017-Jun-22 04:29N 35°30' E 139°45'0 0.0
2017-Jun-22 04:00N 35°30' E 139°45'0 0.0
2017-Jun-22 03:29N 35°30' E 139°45'0 0.0
2017-Jun-22 02:59N 35°30' E 139°45'0 0.0
2017-Jun-22 02:30N 35°30' E 139°45'0 0.0
2017-Jun-22 02:00N 35°30' E 139°45'0 0.0
2017-Jun-22 01:29N 35°30' E 139°45'0 0.0
2017-Jun-22 01:00N 35°30' E 139°45'0 0.0
2017-Jun-22 00:30N 35°30' E 139°45'0 0.0
2017-Jun-21 23:59N 35°30' E 139°45'1 1.7
2017-Jun-21 23:30N 35°30' E 139°44'3 6.2
2017-Jun-21 23:00N 35°27' E 139°43'4 9.0
2017-Jun-21 22:30N 35°28' E 139°49'5 9.7
2017-Jun-21 22:00N 35°29' E 139°55'1 1.7
2017-Jun-21 21:30N 35°29' E 139°55'0 0.0
2017-Jun-21 21:00N 35°29' E 139°55'0 0.0
2017-Jun-21 20:29N 35°29' E 139°55'0 0.1
2017-Jun-21 20:01N 35°29' E 139°55'0 0.1
2017-Jun-21 19:30N 35°29' E 139°56'0 0.1
2017-Jun-21 19:00N 35°29' E 139°56'0 0.0
2017-Jun-21 18:30N 35°29' E 139°56'0 0.0
2017-Jun-21 18:00N 35°29' E 139°56'0 0.0
2017-Jun-21 17:30N 35°29' E 139°56'0 0.0
2017-Jun-21 17:00N 35°29' E 139°56'0 0.0
2017-Jun-21 16:30N 35°29' E 139°56'0 0.0
2017-Jun-21 15:58N 35°29' E 139°56'0 0.0
2017-Jun-21 15:30N 35°29' E 139°56'0 0.0
2017-Jun-21 15:00N 35°29' E 139°56'0 0.0
2017-Jun-21 14:28N 35°29' E 139°56'0 0.0
2017-Jun-21 13:29N 35°29' E 139°56'0 0.0
2017-Jun-21 13:00N 35°29' E 139°56'0 0.0
2017-Jun-21 12:30N 35°29' E 139°56'0 0.0
2017-Jun-21 11:58N 35°29' E 139°56'0 0.0
2017-Jun-21 11:30N 35°29' E 139°56'0 0.0
2017-Jun-21 10:59N 35°29' E 139°56'0 0.0
2017-Jun-21 10:30N 35°29' E 139°56'0 0.0
2017-Jun-21 10:00N 35°29' E 139°56'0 0.0
2017-Jun-21 09:30N 35°29' E 139°56'0 0.0
2017-Jun-21 08:58N 35°29' E 139°56'0 0.0
2017-Jun-21 07:31N 35°29' E 139°55'0 0.1
2017-Jun-21 06:59N 35°29' E 139°55'0 0.0
2017-Jun-21 06:27N 35°29' E 139°55'0 0.0
2017-Jun-21 05:59N 35°29' E 139°55'0 0.0
2017-Jun-21 05:22N 35°29' E 139°55'0 0.1
2017-Jun-21 04:06N 35°29' E 139°55'0 4.0
2017-Jun-21 04:00N 35°29' E 139°56'3 0.4
2017-Jun-20 21:31N 35°29' E 139°59'0 6.1
2017-Jun-20 21:30N 35°29' E 139°59'3 1.9
2017-Jun-20 20:06N 35°28' E 139°56'0 0.0
2017-Jun-20 19:55N 35°28' E 139°56'0 0.1
2017-Jun-20 19:30N 35°28' E 139°56'0 0.0
2017-Jun-20 19:00N 35°28' E 139°56'0 0.0
2017-Jun-20 18:30N 35°28' E 139°56'0 0.0
2017-Jun-20 18:00N 35°28' E 139°56'0 0.0
2017-Jun-20 17:31N 35°28' E 139°56'0 0.0
2017-Jun-20 17:00N 35°28' E 139°56'0 0.0
2017-Jun-20 16:30N 35°28' E 139°56'0 0.0
2017-Jun-20 16:00N 35°28' E 139°56'0 0.0
2017-Jun-20 15:30N 35°28' E 139°56'0 0.0
2017-Jun-20 15:00N 35°28' E 139°56'3 3.5
2017-Jun-20 14:01N 35°28' E 139°51'612.9
2017-Jun-20 13:31N 35°23' E 139°46'611.8
2017-Jun-20 13:00N 35°17' E 139°45'612.0
2017-Jun-20 12:31N 35°12' E 139°47'24510.9
2017-Jun-19 13:58N 34°02' E 135°02'611.9
2017-Jun-19 13:30N 34°07' E 135°04'3 0.4
2017-Jun-19 05:46N 34°07' E 135°07'1 1.4
2017-Jun-19 05:23N 34°08' E 135°07'0 0.0
2017-Jun-19 05:00N 34°08' E 135°07'0 0.0
2017-Jun-19 04:31N 34°08' E 135°07'0 0.0
2017-Jun-19 04:01N 34°08' E 135°07'0 0.0
2017-Jun-19 03:30N 34°08' E 135°07'0 0.0
2017-Jun-19 03:00N 34°08' E 135°07'2 3.1
2017-Jun-19 02:30N 34°08' E 135°05'612.2
2017-Jun-19 02:00N 34°02' E 135°02'244 6.8
2017-Jun-17 14:00N 35°18' E 139°44'611.7
2017-Jun-17 13:30N 35°24' E 139°43'612.1
2017-Jun-17 13:00N 35°29' E 139°48'2 4.3
2017-Jun-17 12:30N 35°30' E 139°45'0 0.0
2017-Jun-17 11:54N 35°30' E 139°45'0 0.0
2017-Jun-17 11:30N 35°30' E 139°45'0 0.0
2017-Jun-17 11:00N 35°30' E 139°45'0 0.0
2017-Jun-17 10:30N 35°30' E 139°45'0 0.0
2017-Jun-17 09:57N 35°30' E 139°45'0 0.0
2017-Jun-17 09:27N 35°30' E 139°45'0 0.0
2017-Jun-17 09:00N 35°30' E 139°45'1 2.2
2017-Jun-17 08:30N 35°30' E 139°44'3 6.4
2017-Jun-17 08:00N 35°27' E 139°44'4 8.2
2017-Jun-17 07:30N 35°23' E 139°45'511.0
2017-Jun-17 07:00N 35°17' E 139°45'611.7
2017-Jun-17 06:30N 35°12' E 139°47'4 0.1
2017-Jun-15 04:56N 35°08' E 139°45'613.0
2017-Jun-15 04:30N 35°13' E 139°46'611.8
2017-Jun-15 04:00N 35°19' E 139°44'611.8
2017-Jun-15 03:31N 35°25' E 139°43'612.3
2017-Jun-15 03:01N 35°29' E 139°48'2 4.2
2017-Jun-15 02:29N 35°30' E 139°45'0 0.0
2017-Jun-15 01:59N 35°30' E 139°45'0 0.0
2017-Jun-15 01:29N 35°30' E 139°45'0 0.0
2017-Jun-15 00:59N 35°30' E 139°45'0 0.0
2017-Jun-15 00:29N 35°30' E 139°45'0 0.0
2017-Jun-14 23:59N 35°30' E 139°45'0 0.0
2017-Jun-14 23:29N 35°30' E 139°45'0 0.0
2017-Jun-14 22:58N 35°30' E 139°45'0 0.1
2017-Jun-14 22:23N 35°30' E 139°45'2 4.2
2017-Jun-14 22:00N 35°30' E 139°43'4 7.2
2017-Jun-14 21:30N 35°26' E 139°44'2 4.1
2017-Jun-14 20:58N 35°24' E 139°45'0 0.1
2017-Jun-14 20:28N 35°24' E 139°45'0 0.0
2017-Jun-14 19:58N 35°24' E 139°45'0 0.0
2017-Jun-14 19:28N 35°24' E 139°45'0 0.1
2017-Jun-14 18:55N 35°24' E 139°45'0 0.0
2017-Jun-14 18:28N 35°24' E 139°45'0 0.0
2017-Jun-14 17:58N 35°24' E 139°45'0 0.0
2017-Jun-14 17:25N 35°24' E 139°45'  

Dump ship's entire track history